Airfield :
LOGIN :

Register | Disclaimer

   EN    FR    IT 

 










Legend :    VFR   Marginal VFR   IFR   Intensive IFR   Very Intensive IFR
Visi :
Ceiling :
>= 8 km
>= 3000ft
5 to 8 km
1000 to 3000 ft
1500m to 5 km
500 to 1000 ft
800 to 1500m
200 to 500 ft
< 800m
< 200 ft
Symbols :   Thunderstorms  Fog  Heavy snow  Heavy precipitations  Wind > 20 kt
SIGMETs :     Misc.  Thunderstorms  Icing  Turbulence  Mountain Waves  Volcanic Ashes







- Airport Elevation : 17 ft
- IATA code : GRS


LIRS - Grosseto

CURRENT METAR :
  • 262355Z 04017G27KT CAVOK 09/M00 Q1017 RMK FEW FEW100 VIS MIN 9999 WIND THR03 0501G25KT WIND THR21 05020KT BLU

EXPIRED METARs :
  • 262255Z 03012G22KT CAVOK 09/M01 Q1017 RMK SKC VIS MIN 9999 WIND THR03 03010G21T WIND THR21 05018G29KT BLU
  • 262155Z 04020G31KT CAVOK 09/M01 Q1017

TAF TAF LIRS
Valid from the 27 at 00:00 until the 27 at 09:00 UTC


262300Z 2700/2709 04020G35KT CAVOK
No reported NOTAMs for that airfield.
2 SIGMETs reported for the Roma FIR (LIRR) :
 
Embedded thunderstorms
LIRR SIGMET 16 VALID 262230/270230 LIIB
LIRR ROMA FIR EMBD TS OBS WI N3731 E01128 - N3809 E01537 - N3922 E01607 - N4106 E01510 - N4128 E01418 - N4216 E01334 - N4111 E01015 - N4121 E00946 - N4119 E00821 - N4106 E00801 - N3901 E00801 - N3731 E01128 TOP FL270 MOV SSE NC=
Severe turbulence
LIRR SIGMET 15 VALID 262230/270230 LIIB
LIRR ROMA FIR SEV TURB FCST WI N4015 E00927 - N3844 E00842 - N3727 E01132 - N3632 E01133 - N3631 E01606 - N4103 E01320 - N4015 E00927 FL180/300 MOV E NC=



MET'MAP, your aeronautical weather chart ! - Copyright ORBIFLY December 2007 - Disclaimer

ORBIFLY MET'MAP TEAM :

Programming & Development : Alexandra Zaïnal
Concept & Development : Baudouin d'Aumeries
Co-Development & Prog : Marc-Olivier Méhu
Technical & hardware support : Manuel Goepfert

Contact : metmap@orbifly.com




SOURCES & CREDITS :

   NOAA